createdAt,value
2019-03-20T00:01:13.329Z,102518.51
2019-03-20T00:02:48.058Z,102529.21
2019-03-20T00:04:22.717Z,102525.13
2019-03-20T00:05:57.426Z,102528.10
2019-03-20T00:07:32.104Z,102518.19
2019-03-20T00:09:09.417Z,102521.16
2019-03-20T00:10:44.065Z,102518.41
2019-03-20T00:12:18.775Z,102519.36
2019-03-20T00:13:53.422Z,102511.00
2019-03-20T00:15:28.143Z,102512.63
2019-03-20T00:17:04.047Z,102502.80
2019-03-20T00:18:39.029Z,102507.38
2019-03-20T00:20:14.074Z,102511.67
2019-03-20T00:21:48.771Z,102505.08
2019-03-20T00:23:23.426Z,102501.48
2019-03-20T00:24:58.111Z,102496.89
2019-03-20T00:26:32.776Z,102499.04
2019-03-20T00:28:07.452Z,102494.11
2019-03-20T00:29:42.119Z,102496.08
2019-03-20T00:31:16.862Z,102497.91
2019-03-20T00:32:51.597Z,102491.00
2019-03-20T00:34:26.315Z,102496.55
2019-03-20T00:36:00.963Z,102498.55
2019-03-20T00:37:35.611Z,102496.06
2019-03-20T00:39:10.291Z,102497.20
2019-03-20T00:40:45.009Z,102494.88
2019-03-20T00:42:19.659Z,102499.66
2019-03-20T00:43:54.305Z,102493.90
2019-03-20T00:45:28.991Z,102492.93
2019-03-20T00:47:04.131Z,102497.87
2019-03-20T00:48:38.806Z,102495.23
2019-03-20T00:50:14.581Z,102495.20
2019-03-20T00:51:49.243Z,102500.30
2019-03-20T00:53:23.905Z,102497.17
2019-03-20T00:54:58.553Z,102498.48
2019-03-20T00:56:33.253Z,102501.10
2019-03-20T00:58:07.957Z,102501.59
2019-03-20T00:59:42.600Z,102496.45
2019-03-20T01:01:17.315Z,102505.05
2019-03-20T01:02:52.131Z,102501.89
2019-03-20T01:04:26.770Z,102504.66
2019-03-20T01:06:01.442Z,102502.73
2019-03-20T01:07:36.237Z,102502.06
2019-03-20T01:09:10.910Z,102506.36
2019-03-20T01:10:45.958Z,102504.37
2019-03-20T01:26:34.369Z,102488.73
2019-03-20T01:28:09.006Z,102487.91
2019-03-20T01:29:43.767Z,102488.05
2019-03-20T01:31:18.448Z,102487.74
2019-03-20T01:32:53.129Z,102484.78
2019-03-20T01:34:27.757Z,102484.14
2019-03-20T01:36:02.490Z,102482.48
2019-03-20T01:37:37.458Z,102480.38
2019-03-20T01:39:12.146Z,102478.84
2019-03-20T01:40:47.136Z,102486.36
2019-03-20T01:42:22.101Z,102488.63
2019-03-20T01:43:56.756Z,102487.66
2019-03-20T01:45:31.484Z,102485.81
2019-03-20T01:47:06.895Z,102486.67
2019-03-20T01:48:41.673Z,102486.98
2019-03-20T01:50:16.540Z,102484.47
2019-03-20T01:51:52.343Z,102484.48
2019-03-20T01:53:26.996Z,102488.92
2019-03-20T01:55:01.640Z,102487.95
2019-03-20T01:56:36.313Z,102487.63
2019-03-20T01:58:10.983Z,102485.64
2019-03-20T01:59:45.642Z,102486.80
2019-03-20T02:01:20.361Z,102483.97
2019-03-20T02:02:55.030Z,102485.42
2019-03-20T02:04:29.696Z,102482.14
2019-03-20T02:06:04.343Z,102493.81
2019-03-20T02:07:38.974Z,102495.16
2019-03-20T02:09:13.632Z,102494.33
2019-03-20T02:10:48.265Z,102493.72
2019-03-20T02:12:22.948Z,102495.67
2019-03-20T02:13:57.578Z,102501.81
2019-03-20T02:15:38.602Z,102496.56
2019-03-20T02:17:08.624Z,102495.55
2019-03-20T02:18:43.416Z,102493.08
2019-03-20T02:20:18.228Z,102498.16
2019-03-20T02:21:52.945Z,102494.69
2019-03-20T02:23:27.628Z,102497.17
2019-03-20T02:25:02.279Z,102496.37
2019-03-20T02:26:38.029Z,102497.17
2019-03-20T02:28:12.703Z,102503.09
2019-03-20T02:29:47.375Z,102502.75
2019-03-20T02:31:22.086Z,102503.73
2019-03-20T02:32:56.792Z,102500.09
2019-03-20T02:34:31.451Z,102503.91
2019-03-20T02:36:06.275Z,102495.72
2019-03-20T02:37:40.906Z,102501.16
2019-03-20T02:39:16.530Z,102496.56
2019-03-20T02:40:51.209Z,102497.67
2019-03-20T02:42:25.933Z,102499.45
2019-03-20T02:44:00.693Z,102498.34
2019-03-20T02:45:35.344Z,102496.97
2019-03-20T02:47:10.005Z,102500.48
2019-03-20T02:48:44.681Z,102500.14
2019-03-20T02:50:19.368Z,102504.12
2019-03-20T02:51:54.115Z,102511.37
2019-03-20T02:53:28.829Z,102511.34
2019-03-20T02:55:03.536Z,102510.04
2019-03-20T02:56:38.270Z,102507.42
2019-03-20T02:58:12.935Z,102513.17
2019-03-20T02:59:47.629Z,102511.02
2019-03-20T03:01:22.255Z,102509.73
2019-03-20T03:02:56.954Z,102505.28
2019-03-20T03:04:31.629Z,102513.00
2019-03-20T03:06:07.574Z,102503.15
2019-03-20T03:07:42.591Z,102508.55
2019-03-20T03:09:17.285Z,102505.43
2019-03-20T03:10:51.914Z,102503.78
2019-03-20T03:12:26.600Z,102507.40
2019-03-20T03:14:01.222Z,102502.17
2019-03-20T03:15:35.869Z,102499.19
2019-03-20T03:17:10.545Z,102493.63
2019-03-20T03:18:46.297Z,102494.92
2019-03-20T03:20:21.015Z,102500.20
2019-03-20T03:21:55.690Z,102500.20
2019-03-20T03:23:30.388Z,102497.87
2019-03-20T03:25:06.207Z,102502.11
2019-03-20T03:26:40.864Z,102490.77
2019-03-20T03:28:15.532Z,102491.09
2019-03-20T03:29:50.175Z,102484.23
2019-03-20T03:31:24.963Z,102483.38
2019-03-20T03:32:59.662Z,102481.09
2019-03-20T03:34:35.397Z,102481.10
2019-03-20T03:36:20.685Z,102487.99
2019-03-20T03:37:46.497Z,102493.25
2019-03-20T03:39:21.149Z,102493.42
2019-03-20T03:40:55.822Z,102484.20
2019-03-20T03:42:30.783Z,102492.58
2019-03-20T03:44:05.727Z,102490.47
2019-03-20T03:45:40.492Z,102491.45
2019-03-20T03:47:15.169Z,102490.95
2019-03-20T03:48:49.900Z,102490.60
2019-03-20T03:50:24.627Z,102489.80
2019-03-20T03:51:59.323Z,102491.27
2019-03-20T03:53:33.967Z,102486.16
2019-03-20T03:55:08.920Z,102486.50
2019-03-20T03:56:43.763Z,102489.59
2019-03-20T03:58:18.438Z,102490.28
2019-03-20T03:59:53.168Z,102498.17
2019-03-20T04:01:27.842Z,102499.82
2019-03-20T04:03:02.555Z,102503.09
2019-03-20T04:04:37.430Z,102505.06
2019-03-20T04:06:12.118Z,102507.39
2019-03-20T04:07:47.961Z,102505.38
2019-03-20T04:09:22.598Z,102502.44
2019-03-20T04:10:57.248Z,102508.21
2019-03-20T04:12:31.921Z,102506.06
2019-03-20T04:14:06.661Z,102505.58
2019-03-20T04:15:41.377Z,102502.45
2019-03-20T04:17:27.729Z,102502.61
2019-03-20T04:19:02.367Z,102502.44
2019-03-20T04:20:37.012Z,102502.94
2019-03-20T04:22:11.706Z,102504.11
2019-03-20T04:23:46.349Z,102506.38
2019-03-20T04:25:21.089Z,102502.80
2019-03-20T04:26:55.742Z,102509.02
2019-03-20T04:28:31.459Z,102511.64
2019-03-20T04:30:06.473Z,102505.08
2019-03-20T04:31:41.148Z,102507.58
2019-03-20T04:33:15.799Z,102510.02
2019-03-20T04:34:50.462Z,102505.38
2019-03-20T04:36:25.135Z,102511.30
2019-03-20T04:37:59.765Z,102509.69
2019-03-20T04:39:34.448Z,102510.00
2019-03-20T04:41:09.118Z,102513.66
2019-03-20T04:42:43.907Z,102515.23
2019-03-20T04:44:18.542Z,102511.33
2019-03-20T04:45:53.171Z,102510.70
2019-03-20T04:47:27.862Z,102513.64
2019-03-20T04:49:02.510Z,102515.61
2019-03-20T04:50:37.164Z,102516.58
2019-03-20T04:52:11.813Z,102521.01
2019-03-20T04:53:46.522Z,102519.55
2019-03-20T04:55:21.141Z,102523.48
2019-03-20T04:56:55.790Z,102522.48
2019-03-20T04:58:30.487Z,102529.41
2019-03-20T05:00:06.460Z,102524.16
2019-03-20T05:01:42.195Z,102521.64
2019-03-20T05:03:16.934Z,102528.22
2019-03-20T05:04:51.572Z,102513.12
2019-03-20T05:06:26.263Z,102515.89
2019-03-20T05:08:00.905Z,102523.77
2019-03-20T05:09:35.579Z,102522.78
2019-03-20T05:11:10.236Z,102521.33
2019-03-20T05:12:45.052Z,102528.87
2019-03-20T05:14:19.770Z,102529.02
2019-03-20T05:15:54.482Z,102531.02
2019-03-20T05:17:30.148Z,102526.91
2019-03-20T05:19:04.873Z,102529.69
2019-03-20T05:20:39.510Z,102525.09
2019-03-20T05:22:14.125Z,102527.69
2019-03-20T05:23:48.755Z,102524.40
2019-03-20T05:25:23.443Z,102536.70
2019-03-20T05:26:58.124Z,102536.04
2019-03-20T05:28:32.788Z,102534.41
2019-03-20T05:30:08.064Z,102540.17
2019-03-20T05:31:42.736Z,102548.71
2019-03-20T05:33:17.483Z,102547.38
2019-03-20T05:34:52.205Z,102553.78
2019-03-20T05:36:26.893Z,102553.29
2019-03-20T05:38:02.035Z,102552.94
2019-03-20T05:39:37.878Z,102554.74
2019-03-20T05:41:12.543Z,102569.00
2019-03-20T05:42:47.377Z,102564.50
2019-03-20T05:44:22.018Z,102562.75
2019-03-20T05:45:56.707Z,102562.37
2019-03-20T05:47:31.388Z,102560.77
2019-03-20T05:49:06.024Z,102563.06
2019-03-20T05:50:40.894Z,102570.21
2019-03-20T05:52:15.565Z,102562.50
2019-03-20T05:53:50.283Z,102570.58
2019-03-20T05:55:24.952Z,102565.59
2019-03-20T05:56:59.599Z,102574.59
2019-03-20T05:58:34.271Z,102572.09
2019-03-20T06:00:10.329Z,102567.95
2019-03-20T06:01:45.018Z,102574.72
2019-03-20T06:03:20.007Z,102566.44
2019-03-20T06:04:55.733Z,102563.98
2019-03-20T06:06:30.365Z,102563.62
2019-03-20T06:08:05.117Z,102563.29
2019-03-20T06:09:39.808Z,102562.01
2019-03-20T06:11:14.452Z,102571.34
2019-03-20T06:12:49.209Z,102577.77
2019-03-20T06:14:24.174Z,102574.03
2019-03-20T06:15:58.827Z,102573.74
2019-03-20T06:17:33.527Z,102576.70
2019-03-20T06:19:08.183Z,102572.14
2019-03-20T06:20:42.816Z,102566.16
2019-03-20T06:22:17.476Z,102571.44
2019-03-20T06:23:52.136Z,102573.69
2019-03-20T06:25:26.808Z,102577.56
2019-03-20T06:27:01.500Z,102575.33
2019-03-20T06:28:36.173Z,102574.75
2019-03-20T06:30:13.315Z,102585.50
2019-03-20T06:31:48.920Z,102582.52
2019-03-20T06:33:23.575Z,102586.04
2019-03-20T06:34:58.215Z,102584.45
2019-03-20T06:36:32.968Z,102588.61
2019-03-20T06:38:07.635Z,102587.75
2019-03-20T06:39:42.316Z,102591.41
2019-03-20T06:41:16.988Z,102593.26
2019-03-20T06:42:51.630Z,102601.78
2019-03-20T06:44:26.306Z,102598.27
2019-03-20T06:46:00.966Z,102606.37
2019-03-20T06:47:35.600Z,102611.86
2019-03-20T06:49:10.261Z,102603.20
2019-03-20T06:50:44.901Z,102604.14
2019-03-20T06:52:19.558Z,102603.56
2019-03-20T06:53:54.187Z,102603.84
2019-03-20T06:55:28.860Z,102596.77
2019-03-20T06:57:03.606Z,102598.09
2019-03-20T06:58:38.264Z,102599.09
2019-03-20T07:00:54.658Z,102608.00
2019-03-20T07:02:29.207Z,102606.42
2019-03-20T07:04:18.326Z,102600.17
2019-03-20T07:06:32.322Z,102607.19
2019-03-20T07:08:07.802Z,102607.22
2019-03-20T07:10:02.182Z,102609.61
2019-03-20T07:11:39.737Z,102607.10
2019-03-20T07:13:15.357Z,102607.10
2019-03-20T07:14:50.029Z,102609.91
2019-03-20T07:16:24.696Z,102610.95
2019-03-20T07:17:59.358Z,102613.70
2019-03-20T07:19:33.984Z,102611.23
2019-03-20T07:21:08.914Z,102608.11
2019-03-20T07:22:43.607Z,102604.96
2019-03-20T07:24:18.264Z,102608.66
2019-03-20T07:25:52.942Z,102613.75
2019-03-20T07:27:27.572Z,102608.45
2019-03-20T07:29:02.254Z,102606.55
2019-03-20T07:30:36.930Z,102613.18
2019-03-20T07:32:12.675Z,102615.16
2019-03-20T07:33:47.488Z,102617.31
2019-03-20T07:35:22.187Z,102620.70
2019-03-20T07:36:56.907Z,102617.70
2019-03-20T07:38:31.561Z,102616.36
2019-03-20T07:40:06.661Z,102614.33
2019-03-20T07:41:41.306Z,102625.76
2019-03-20T07:43:15.962Z,102622.44
2019-03-20T07:44:50.639Z,102627.07
2019-03-20T07:46:25.320Z,102617.45
2019-03-20T07:47:59.953Z,102622.55
2019-03-20T07:49:34.655Z,102628.80
2019-03-20T07:51:09.313Z,102628.80
2019-03-20T07:52:43.993Z,102638.75
2019-03-20T07:54:18.639Z,102639.84
2019-03-20T07:55:53.355Z,102637.67
2019-03-20T07:57:28.030Z,102631.71
2019-03-20T07:59:02.691Z,102646.29
2019-03-20T08:00:37.376Z,102646.29
2019-03-20T08:02:12.138Z,102644.54
2019-03-20T08:03:46.865Z,102644.54
2019-03-20T08:05:29.303Z,102656.44
2019-03-20T08:06:57.890Z,102662.55
2019-03-20T08:08:32.553Z,102662.08
2019-03-20T08:10:09.845Z,102662.08
2019-03-20T08:11:44.517Z,102662.45
2019-03-20T08:13:19.202Z,102666.86
2019-03-20T08:14:53.882Z,102664.08
2019-03-20T08:16:28.508Z,102662.56
2019-03-20T08:18:03.234Z,102670.05
2019-03-20T08:19:39.104Z,102672.05
2019-03-20T08:21:13.791Z,102668.83
2019-03-20T08:22:48.502Z,102664.76
2019-03-20T08:24:24.167Z,102676.55
2019-03-20T08:25:59.801Z,102677.73
2019-03-20T08:27:34.484Z,102668.02
2019-03-20T08:29:09.146Z,102664.77
2019-03-20T08:30:43.823Z,102673.63
2019-03-20T08:32:18.483Z,102679.36
2019-03-20T08:33:54.237Z,102668.55
2019-03-20T08:35:28.906Z,102671.32
2019-03-20T08:37:03.906Z,102667.79
2019-03-20T08:38:39.626Z,102674.39
2019-03-20T08:40:14.461Z,102670.45
2019-03-20T08:41:49.183Z,102667.47
2019-03-20T08:43:23.878Z,102671.27
2019-03-20T08:44:58.522Z,102666.27
2019-03-20T08:46:33.607Z,102667.88
2019-03-20T08:48:08.232Z,102673.21
2019-03-20T08:49:42.943Z,102665.45
2019-03-20T08:51:17.612Z,102665.14
2019-03-20T08:52:52.335Z,102664.49
2019-03-20T08:54:26.977Z,102666.63
2019-03-20T08:56:01.697Z,102670.25
2019-03-20T08:57:36.360Z,102677.70
2019-03-20T08:59:11.068Z,102667.89
2019-03-20T09:00:45.716Z,102665.39
2019-03-20T09:02:20.422Z,102666.44
2019-03-20T09:03:55.168Z,102672.15
2019-03-20T09:05:29.839Z,102673.27
2019-03-20T09:07:04.493Z,102676.02
2019-03-20T09:08:39.208Z,102675.40
2019-03-20T09:10:16.096Z,102670.55
2019-03-20T09:11:50.775Z,102657.66
2019-03-20T09:13:25.407Z,102672.12
2019-03-20T09:15:00.270Z,102666.38
2019-03-20T09:16:34.897Z,102666.38
2019-03-20T09:18:09.645Z,102669.91
2019-03-20T09:19:47.136Z,102669.91
2019-03-20T09:21:21.867Z,102669.09
2019-03-20T09:22:56.526Z,102667.41
2019-03-20T09:24:31.282Z,102666.11
2019-03-20T09:26:05.943Z,102662.88
2019-03-20T09:27:40.655Z,102662.88
2019-03-20T09:29:18.746Z,102672.74
2019-03-20T09:30:51.698Z,102672.74
2019-03-20T09:32:26.331Z,102671.34
2019-03-20T09:34:01.122Z,102667.98
2019-03-20T09:35:35.778Z,102675.34
2019-03-20T09:37:10.493Z,102665.77
2019-03-20T09:38:45.172Z,102668.16
2019-03-20T09:40:19.824Z,102665.62
2019-03-20T09:41:55.501Z,102674.86
2019-03-20T09:43:31.493Z,102667.81
2019-03-20T09:45:07.577Z,102670.25
2019-03-20T09:46:42.189Z,102667.34
2019-03-20T09:48:17.826Z,102670.28
2019-03-20T09:49:52.474Z,102662.94
2019-03-20T09:51:27.112Z,102669.48
2019-03-20T09:53:01.761Z,102657.28
2019-03-20T09:54:36.423Z,102656.42
2019-03-20T09:56:11.147Z,102648.34
2019-03-20T09:57:45.871Z,102658.91
2019-03-20T09:59:20.541Z,102663.47
2019-03-20T10:00:55.224Z,102656.27
2019-03-20T10:02:29.902Z,102651.67
2019-03-20T10:04:04.781Z,102648.37
2019-03-20T10:05:40.516Z,102649.81
2019-03-20T10:07:15.161Z,102645.25
2019-03-20T10:08:54.121Z,102652.51
2019-03-20T10:10:26.227Z,102649.77
2019-03-20T10:12:00.970Z,102643.87
2019-03-20T10:13:35.700Z,102642.53
2019-03-20T10:15:11.580Z,102640.59
2019-03-20T10:16:46.241Z,102647.66
2019-03-20T10:18:20.928Z,102647.15
2019-03-20T10:19:55.563Z,102660.08
2019-03-20T10:21:30.213Z,102658.39
2019-03-20T10:23:04.935Z,102651.38
2019-03-20T10:24:39.649Z,102660.59
2019-03-20T10:26:14.276Z,102656.13
2019-03-20T10:27:49.026Z,102652.72
2019-03-20T10:29:23.674Z,102656.02
2019-03-20T10:30:58.351Z,102663.56
2019-03-20T10:32:33.009Z,102657.35
2019-03-20T10:34:07.677Z,102657.09
2019-03-20T10:35:49.886Z,102665.75
2019-03-20T10:37:18.811Z,102663.06
2019-03-20T10:39:05.771Z,102658.41
2019-03-20T10:40:31.512Z,102665.30
2019-03-20T10:42:06.245Z,102656.29
2019-03-20T10:43:40.866Z,102660.33
2019-03-20T10:45:15.762Z,102665.44
2019-03-20T10:46:50.429Z,102663.41
2019-03-20T10:48:25.072Z,102665.89
2019-03-20T10:49:59.748Z,102671.08
2019-03-20T10:51:34.379Z,102668.38
2019-03-20T10:53:09.032Z,102669.45
2019-03-20T10:54:45.545Z,102665.72
2019-03-20T10:56:20.201Z,102668.13
2019-03-20T10:57:54.913Z,102670.57
2019-03-20T10:59:29.643Z,102670.70
2019-03-20T11:01:04.888Z,102677.98
2019-03-20T11:02:39.606Z,102680.78
2019-03-20T11:04:14.279Z,102670.55
2019-03-20T11:05:48.934Z,102673.28
2019-03-20T11:07:23.569Z,102675.23
2019-03-20T11:08:58.251Z,102681.12
2019-03-20T11:10:32.912Z,102680.08
2019-03-20T11:12:07.553Z,102676.02
2019-03-20T11:13:42.281Z,102680.38
2019-03-20T11:15:16.998Z,102682.52
2019-03-20T11:16:51.663Z,102682.52
2019-03-20T11:18:26.323Z,102682.62
2019-03-20T11:20:00.941Z,102686.72
2019-03-20T11:21:35.615Z,102681.08
2019-03-20T11:23:10.329Z,102676.51
2019-03-20T11:24:45.072Z,102676.48
2019-03-20T11:26:20.742Z,102672.83
2019-03-20T11:27:55.534Z,102671.34
2019-03-20T11:29:30.248Z,102675.30
2019-03-20T11:31:04.976Z,102665.41
2019-03-20T11:32:40.166Z,102665.41
2019-03-20T11:34:14.777Z,102678.48
2019-03-20T11:35:49.444Z,102682.56
2019-03-20T11:37:24.108Z,102684.19
2019-03-20T11:38:59.523Z,102684.19
2019-03-20T11:40:34.227Z,102681.13
2019-03-20T11:42:08.882Z,102683.33
2019-03-20T11:43:43.604Z,102683.33
2019-03-20T11:45:18.344Z,102686.21
2019-03-20T11:46:52.977Z,102681.86
2019-03-20T11:48:27.726Z,102682.45
2019-03-20T11:50:02.418Z,102687.91
2019-03-20T11:51:37.052Z,102689.62
2019-03-20T11:53:11.663Z,102685.75
2019-03-20T11:54:46.290Z,102672.61
2019-03-20T11:56:21.201Z,102672.61
2019-03-20T11:57:55.902Z,102701.28
2019-03-20T11:59:30.548Z,102701.91
2019-03-20T12:01:05.394Z,102701.91
2019-03-20T12:02:40.489Z,102690.52
2019-03-20T12:04:15.118Z,102693.92
2019-03-20T12:05:49.776Z,102691.97
2019-03-20T12:07:26.136Z,102694.11
2019-03-20T12:09:01.883Z,102687.87
2019-03-20T12:10:37.602Z,102693.08
2019-03-20T12:12:12.351Z,102692.97
2019-03-20T12:13:47.000Z,102690.80
2019-03-20T12:15:21.849Z,102697.34
2019-03-20T12:16:56.493Z,102697.13
2019-03-20T12:18:31.143Z,102615.34
2019-03-20T12:20:08.498Z,102699.81
2019-03-20T12:21:43.134Z,102699.81
2019-03-20T12:23:17.811Z,102694.13
2019-03-20T12:24:52.471Z,102692.62
2019-03-20T12:26:27.115Z,102691.41
2019-03-20T12:28:02.841Z,102695.73
2019-03-20T12:29:37.476Z,102687.23
2019-03-20T12:31:12.148Z,102693.61
2019-03-20T12:32:48.500Z,102698.91
2019-03-20T12:34:23.280Z,102804.95
2019-03-20T12:35:57.975Z,102700.10
2019-03-20T12:37:32.745Z,102706.43
2019-03-20T12:39:09.156Z,102699.92
2019-03-20T12:40:43.812Z,102696.47
2019-03-20T12:42:18.718Z,102695.14
2019-03-20T12:43:53.356Z,102695.14
2019-03-20T12:45:29.937Z,102684.41
2019-03-20T12:47:04.604Z,102694.45
2019-03-20T12:48:39.276Z,102687.61
2019-03-20T12:50:14.259Z,102705.77
2019-03-20T12:51:48.884Z,102705.77
2019-03-20T12:53:25.604Z,102702.36
2019-03-20T12:55:00.451Z,102700.91
2019-03-20T12:56:35.185Z,102700.91
2019-03-20T12:58:09.813Z,102703.08
2019-03-20T12:59:44.463Z,102703.08
2019-03-20T13:01:20.105Z,102691.24
2019-03-20T13:02:54.808Z,102694.77
2019-03-20T13:04:30.416Z,102705.30
2019-03-20T13:06:05.291Z,102695.94
2019-03-20T13:07:39.924Z,102695.94
2019-03-20T13:09:14.596Z,102692.66
2019-03-20T13:10:49.332Z,102692.66
2019-03-20T13:12:23.985Z,102686.06
2019-03-20T13:13:58.632Z,102693.79
2019-03-20T13:15:33.673Z,102690.05
2019-03-20T13:17:08.531Z,102690.05
2019-03-20T13:18:43.193Z,102692.92
2019-03-20T13:20:18.033Z,102684.30
2019-03-20T13:21:52.853Z,102684.21
2019-03-20T13:23:29.784Z,102684.21
2019-03-20T13:25:05.131Z,102677.31
2019-03-20T13:26:39.785Z,102696.68
2019-03-20T13:28:14.435Z,102696.68
2019-03-20T13:29:49.210Z,102761.27
2019-03-20T13:31:23.961Z,102680.87
2019-03-20T13:32:58.721Z,102689.51
2019-03-20T13:34:34.510Z,102689.77
2019-03-20T13:36:09.260Z,102687.52
2019-03-20T13:37:43.922Z,102686.43
2019-03-20T13:39:18.602Z,102684.72
2019-03-20T13:40:53.274Z,102684.84
2019-03-20T13:42:27.940Z,102686.67
2019-03-20T13:44:02.607Z,102689.74
2019-03-20T13:45:37.259Z,102690.91
2019-03-20T13:47:11.995Z,102681.73
2019-03-20T13:48:46.665Z,102684.88
2019-03-20T13:50:21.320Z,102685.95
2019-03-20T13:51:56.037Z,102685.95
2019-03-20T13:53:30.689Z,102683.09
2019-03-20T13:55:05.714Z,102681.84
2019-03-20T13:56:40.344Z,102684.64
2019-03-20T13:58:15.000Z,102684.64
2019-03-20T13:59:49.710Z,102681.84
2019-03-20T14:01:24.333Z,102689.77
2019-03-20T14:02:59.049Z,102686.67
2019-03-20T14:04:33.690Z,102683.59
2019-03-20T14:06:08.341Z,102686.05
2019-03-20T14:07:43.066Z,102681.32
2019-03-20T14:09:18.097Z,102681.32
2019-03-20T14:10:52.744Z,102683.12
2019-03-20T14:12:27.399Z,102683.12
2019-03-20T14:14:02.060Z,102681.98
2019-03-20T14:15:36.754Z,102685.95
2019-03-20T14:17:11.419Z,102680.70
2019-03-20T14:18:46.706Z,102680.70
2019-03-20T14:20:22.912Z,102686.22
2019-03-20T14:21:57.604Z,102685.51
2019-03-20T14:23:32.325Z,102685.51
2019-03-20T14:25:07.247Z,102679.49
2019-03-20T14:26:41.895Z,102679.49
2019-03-20T14:28:16.553Z,102681.59
2019-03-20T14:29:52.790Z,102679.15
2019-03-20T14:31:27.461Z,102678.96
2019-03-20T14:33:02.236Z,102675.14
2019-03-20T14:34:36.886Z,102669.80
2019-03-20T14:36:11.560Z,102662.35
2019-03-20T14:37:46.286Z,102662.35
2019-03-20T14:39:20.985Z,102672.10
2019-03-20T14:40:55.708Z,102668.61
2019-03-20T14:42:30.351Z,102662.39
2019-03-20T14:44:05.087Z,102667.02
2019-03-20T14:45:39.791Z,102667.02
2019-03-20T14:47:14.436Z,102669.59
2019-03-20T14:48:49.161Z,102669.09
2019-03-20T14:50:24.905Z,102662.02
2019-03-20T14:51:59.537Z,102657.44
2019-03-20T14:53:34.184Z,102657.44
2019-03-20T14:55:09.682Z,102656.23
2019-03-20T14:56:44.369Z,102656.23
2019-03-20T14:58:19.345Z,102652.87
2019-03-20T14:59:53.991Z,102652.87
2019-03-20T15:01:28.663Z,102658.58
2019-03-20T15:03:03.322Z,102643.82
2019-03-20T15:04:37.976Z,102660.77
2019-03-20T15:06:12.667Z,102658.52
2019-03-20T15:07:47.387Z,102658.52
2019-03-20T15:09:22.015Z,102661.37
2019-03-20T15:10:56.723Z,102658.17
2019-03-20T15:12:31.383Z,102651.84
2019-03-20T15:14:06.093Z,102663.87
2019-03-20T15:15:44.364Z,102664.32
2019-03-20T15:17:19.002Z,102666.97
2019-03-20T15:18:53.750Z,102666.97
2019-03-20T15:20:28.493Z,102670.03
2019-03-20T15:22:03.151Z,102670.03
2019-03-20T15:23:37.797Z,102669.74
2019-03-20T15:25:12.652Z,102669.74
2019-03-20T15:26:47.581Z,102669.22
2019-03-20T15:28:22.236Z,102669.22
2019-03-20T15:29:56.906Z,102665.98
2019-03-20T15:31:31.655Z,102663.97
2019-03-20T15:33:06.327Z,102658.67
2019-03-20T15:34:40.975Z,102663.05
2019-03-20T15:36:15.673Z,102654.89
2019-03-20T15:37:50.722Z,102650.87
2019-03-20T15:39:25.366Z,102650.87
2019-03-20T15:41:00.083Z,102647.45
2019-03-20T15:42:34.755Z,102644.41
2019-03-20T15:44:10.470Z,102648.32
2019-03-20T15:45:45.137Z,102643.53
2019-03-20T15:47:19.815Z,102646.23
2019-03-20T15:48:54.518Z,102646.23
2019-03-20T15:50:29.158Z,102643.86
2019-03-20T15:52:03.878Z,102640.85
2019-03-20T15:53:38.516Z,102644.38
2019-03-20T15:55:27.602Z,102647.09
2019-03-20T15:57:02.260Z,102636.64
2019-03-20T15:58:36.917Z,102639.52
2019-03-20T16:00:16.001Z,102639.52
2019-03-20T16:01:50.651Z,102640.76
2019-03-20T16:03:26.036Z,102646.48
2019-03-20T16:05:00.708Z,102645.65
2019-03-20T16:06:36.434Z,102648.49
2019-03-20T16:08:11.167Z,102652.79
2019-03-20T16:09:45.832Z,102652.79
2019-03-20T16:11:21.555Z,102652.11
2019-03-20T16:12:56.225Z,102655.98
2019-03-20T16:14:30.921Z,102655.50
2019-03-20T16:16:05.715Z,102653.03
2019-03-20T16:17:40.337Z,102658.89
2019-03-20T16:19:14.986Z,102658.89
2019-03-20T16:20:49.646Z,102664.07
2019-03-20T16:22:24.281Z,102664.07
2019-03-20T16:23:58.938Z,102667.97
2019-03-20T16:25:33.601Z,102675.88
2019-03-20T16:27:09.438Z,102667.05
2019-03-20T16:28:44.095Z,102663.14
2019-03-20T16:30:20.209Z,102658.02
2019-03-20T16:31:55.145Z,102669.05
2019-03-20T16:33:29.872Z,102669.05
2019-03-20T16:35:04.773Z,102668.23
2019-03-20T16:36:39.481Z,102664.45
2019-03-20T16:38:14.143Z,102664.45
2019-03-20T16:39:48.807Z,102666.67
2019-03-20T16:41:23.473Z,102664.40
2019-03-20T16:42:58.131Z,102664.59
2019-03-20T16:44:32.780Z,102656.38
2019-03-20T16:46:07.433Z,102656.38
2019-03-20T16:47:42.134Z,102674.53
2019-03-20T16:49:16.771Z,102667.26
2019-03-20T16:50:51.424Z,102663.13
2019-03-20T16:52:26.140Z,102663.59
2019-03-20T16:54:01.884Z,102665.05
2019-03-20T16:55:36.630Z,102659.59
2019-03-20T16:57:11.418Z,102660.97
2019-03-20T16:58:46.116Z,102662.42
2019-03-20T17:00:22.464Z,102664.23
2019-03-20T17:01:57.132Z,102663.06
2019-03-20T17:03:31.844Z,102667.13
2019-03-20T17:05:06.611Z,102676.66
2019-03-20T17:06:41.244Z,102676.96
2019-03-20T17:08:15.927Z,102682.06
2019-03-20T17:09:50.928Z,102682.36
2019-03-20T17:11:34.396Z,102678.05
2019-03-20T17:13:01.984Z,102683.00
2019-03-20T17:14:36.644Z,102677.87
2019-03-20T17:16:11.388Z,102675.95
2019-03-20T17:17:46.046Z,102675.95
2019-03-20T17:19:21.799Z,102675.14
2019-03-20T17:20:57.970Z,102679.40
2019-03-20T17:22:41.732Z,102679.86
2019-03-20T17:24:13.363Z,102673.50
2019-03-20T17:25:48.061Z,102673.50
2019-03-20T17:27:22.783Z,102674.80
2019-03-20T17:28:57.405Z,102677.70
2019-03-20T17:30:34.786Z,102677.14
2019-03-20T17:32:09.485Z,102673.42
2019-03-20T17:33:44.146Z,102675.92
2019-03-20T17:35:18.886Z,102675.92
2019-03-20T17:36:53.540Z,102669.44
2019-03-20T17:38:28.210Z,102673.22
2019-03-20T17:40:02.857Z,102673.21
2019-03-20T17:41:37.499Z,102669.38
2019-03-20T17:43:12.151Z,102674.08
2019-03-20T17:44:46.789Z,102674.12
2019-03-20T17:46:21.440Z,102677.95
2019-03-20T17:47:56.264Z,102682.59
2019-03-20T17:49:30.905Z,102678.45
2019-03-20T17:51:05.616Z,102678.97
2019-03-20T17:52:40.263Z,102672.22
2019-03-20T17:54:14.893Z,102685.21
2019-03-20T17:55:49.572Z,102680.52
2019-03-20T17:57:24.255Z,102677.61
2019-03-20T17:58:58.937Z,102674.37
2019-03-20T18:00:36.518Z,102683.87
2019-03-20T18:02:11.161Z,102687.78
2019-03-20T18:03:45.805Z,102685.78
2019-03-20T18:05:20.447Z,102687.87
2019-03-20T18:06:55.123Z,102690.17
2019-03-20T18:08:29.816Z,102690.12
2019-03-20T18:10:05.353Z,102690.79
2019-03-20T18:11:47.057Z,102689.91
2019-03-20T18:13:16.356Z,102691.51
2019-03-20T18:14:51.023Z,102689.67
2019-03-20T18:16:25.707Z,102697.47
2019-03-20T18:18:00.460Z,102698.34
2019-03-20T18:19:35.164Z,102701.31